createdAt,value
2022-10-12T00:00:39.794Z,75.46
2022-10-12T00:03:07.830Z,76.71
2022-10-12T00:05:35.815Z,78.00
2022-10-12T00:08:05.332Z,77.08
2022-10-12T00:10:33.248Z,76.01
2022-10-12T00:13:01.251Z,75.22
2022-10-12T00:15:29.255Z,75.99
2022-10-12T00:17:57.194Z,76.43
2022-10-12T00:20:25.139Z,77.21
2022-10-12T00:22:53.095Z,76.19
2022-10-12T00:25:22.524Z,75.29
2022-10-12T00:27:50.485Z,75.58
2022-10-12T00:30:18.846Z,75.91
2022-10-12T00:32:46.856Z,76.11
2022-10-12T00:35:14.898Z,75.88
2022-10-12T00:37:42.948Z,79.08
2022-10-12T00:40:13.039Z,79.52
2022-10-12T00:42:42.354Z,80.20
2022-10-12T00:45:11.239Z,79.93
2022-10-12T00:47:42.813Z,80.95
2022-10-12T00:50:17.056Z,81.63
2022-10-12T00:52:51.187Z,82.65
2022-10-12T00:55:21.081Z,83.01
2022-10-12T00:57:52.425Z,81.21
2022-10-12T01:00:22.260Z,80.91
2022-10-12T01:02:53.246Z,80.07
2022-10-12T01:05:22.262Z,80.08
2022-10-12T01:07:50.583Z,78.88
2022-10-12T01:10:18.825Z,79.00
2022-10-12T01:12:50.680Z,79.03
2022-10-12T01:15:18.820Z,79.02
2022-10-12T01:18:01.110Z,78.36
2022-10-12T01:21:03.144Z,77.91
2022-10-12T01:24:03.649Z,77.93
2022-10-12T01:27:01.405Z,77.49
2022-10-12T01:29:53.452Z,77.53
2022-10-12T01:32:26.141Z,77.55
2022-10-12T01:35:00.135Z,76.74
2022-10-12T01:37:36.485Z,75.68
2022-10-12T01:40:09.034Z,75.67
2022-10-12T01:42:41.414Z,75.44
2022-10-12T01:45:13.509Z,75.41
2022-10-12T01:47:43.949Z,75.80
2022-10-12T01:50:15.405Z,75.87
2022-10-12T01:52:52.879Z,76.20
2022-10-12T01:55:30.047Z,75.86
2022-10-12T01:58:17.322Z,75.56
2022-10-12T02:00:57.109Z,75.94
2022-10-12T02:03:34.949Z,75.22
2022-10-12T02:06:08.318Z,75.26
2022-10-12T02:08:43.011Z,75.76
2022-10-12T02:11:13.688Z,75.32
2022-10-12T02:13:45.034Z,75.23
2022-10-12T02:16:18.329Z,75.82
2022-10-12T02:18:49.547Z,76.07
2022-10-12T02:21:22.350Z,75.99
2022-10-12T02:23:53.763Z,75.68
2022-10-12T02:26:23.032Z,76.19
2022-10-12T02:28:51.701Z,75.99
2022-10-12T02:31:29.927Z,76.20
2022-10-12T02:34:02.369Z,75.78
2022-10-12T02:36:37.874Z,77.45
2022-10-12T02:39:11.844Z,79.08
2022-10-12T02:41:45.973Z,80.02
2022-10-12T02:44:17.301Z,80.41
2022-10-12T02:46:49.285Z,80.56
2022-10-12T02:49:18.633Z,79.58
2022-10-12T02:51:48.261Z,78.72
2022-10-12T02:54:16.539Z,78.24
2022-10-12T02:56:46.051Z,77.76
2022-10-12T02:59:14.549Z,78.22
2022-10-12T03:01:42.693Z,78.76
2022-10-12T03:04:12.033Z,78.35
2022-10-12T03:06:40.091Z,78.06
2022-10-12T03:09:08.137Z,78.35
2022-10-12T03:11:37.736Z,78.65
2022-10-12T03:14:05.791Z,78.81
2022-10-12T03:16:33.755Z,78.42
2022-10-12T03:19:01.766Z,78.04
2022-10-12T03:21:31.118Z,77.79
2022-10-12T03:23:59.152Z,77.88
2022-10-12T03:26:27.284Z,77.25
2022-10-12T03:28:55.504Z,77.03
2022-10-12T03:31:23.649Z,77.11
2022-10-12T03:33:51.668Z,76.80
2022-10-12T03:36:19.705Z,76.83
2022-10-12T03:38:49.085Z,76.87
2022-10-12T03:41:17.029Z,76.75
2022-10-12T03:43:45.824Z,76.91
2022-10-12T03:46:13.912Z,77.05
2022-10-12T03:48:42.004Z,78.36
2022-10-12T03:51:09.978Z,79.09
2022-10-12T03:53:41.775Z,78.61
2022-10-12T03:56:14.463Z,78.24
2022-10-12T03:58:42.418Z,78.76
2022-10-12T04:01:10.461Z,78.50
2022-10-12T04:03:38.510Z,78.70
2022-10-12T04:06:07.094Z,78.73
2022-10-12T04:08:35.126Z,78.31
2022-10-12T04:11:03.160Z,78.81
2022-10-12T04:13:32.548Z,78.71
2022-10-12T04:16:03.608Z,79.20
2022-10-12T04:18:31.998Z,79.72
2022-10-12T04:21:00.692Z,79.59
2022-10-12T04:23:29.149Z,79.52
2022-10-12T04:25:57.091Z,79.52
2022-10-12T04:28:25.111Z,79.83
2022-10-12T04:30:54.569Z,79.82
2022-10-12T04:33:22.525Z,80.00
2022-10-12T04:35:50.555Z,79.56
2022-10-12T04:38:18.727Z,80.44
2022-10-12T04:40:47.982Z,80.05
2022-10-12T04:43:16.620Z,79.64
2022-10-12T04:45:45.028Z,79.07
2022-10-12T04:48:14.344Z,79.99
2022-10-12T04:50:42.320Z,81.30
2022-10-12T04:53:10.318Z,80.67
2022-10-12T04:55:39.051Z,82.50
2022-10-12T04:58:06.980Z,83.24
2022-10-12T05:00:35.091Z,82.75
2022-10-12T05:03:03.036Z,82.22
2022-10-12T05:05:34.426Z,81.53
2022-10-12T05:08:02.486Z,81.22
2022-10-12T05:10:30.599Z,80.77
2022-10-12T05:12:58.680Z,80.60
2022-10-12T05:15:26.651Z,83.60
2022-10-12T05:17:54.688Z,85.97
2022-10-12T05:20:22.738Z,85.40
2022-10-12T05:22:52.099Z,83.67
2022-10-12T05:25:20.585Z,83.69
2022-10-12T05:27:48.656Z,83.34
2022-10-12T05:30:16.891Z,82.70
2022-10-12T05:32:44.939Z,82.20
2022-10-12T05:35:12.898Z,82.29
2022-10-12T05:37:41.228Z,82.58
2022-10-12T05:40:11.794Z,81.95
2022-10-12T05:42:40.125Z,81.54
2022-10-12T05:45:09.385Z,81.83
2022-10-12T05:47:37.827Z,81.06
2022-10-12T05:50:06.837Z,81.22
2022-10-12T05:52:34.984Z,81.02
2022-10-12T05:55:03.177Z,80.55
2022-10-12T05:57:32.705Z,81.23
2022-10-12T06:00:00.655Z,82.71
2022-10-12T06:02:28.717Z,81.69
2022-10-12T06:04:56.681Z,80.76
2022-10-12T06:07:24.774Z,80.79
2022-10-12T06:09:52.711Z,80.30
2022-10-12T06:12:21.092Z,80.32
2022-10-12T06:14:50.497Z,79.92
2022-10-12T06:17:18.447Z,79.89
2022-10-12T06:19:46.513Z,79.59
2022-10-12T06:22:14.469Z,79.28
2022-10-12T06:24:42.477Z,79.20
2022-10-12T06:27:10.466Z,79.06
2022-10-12T06:29:38.501Z,79.28
2022-10-12T06:32:07.784Z,79.01
2022-10-12T06:34:35.763Z,78.87
2022-10-12T06:37:03.731Z,78.25
2022-10-12T06:39:31.868Z,77.57
2022-10-12T06:41:59.889Z,77.15
2022-10-12T06:44:29.633Z,77.09
2022-10-12T06:46:57.699Z,76.67
2022-10-12T06:49:27.111Z,76.60
2022-10-12T06:51:55.094Z,76.71
2022-10-12T06:54:23.038Z,76.82
2022-10-12T06:56:53.356Z,76.13
2022-10-12T06:59:25.020Z,76.31
2022-10-12T07:01:52.970Z,76.04
2022-10-12T07:04:20.915Z,76.46
2022-10-12T07:06:50.623Z,76.54
2022-10-12T07:09:18.787Z,76.46
2022-10-12T07:11:46.934Z,75.95
2022-10-12T07:14:14.921Z,75.64
2022-10-12T07:16:42.880Z,74.76
2022-10-12T07:19:11.052Z,75.06
2022-10-12T07:21:39.033Z,73.63
2022-10-12T07:24:08.941Z,73.96
2022-10-12T07:26:36.928Z,73.86
2022-10-12T07:29:04.919Z,73.07
2022-10-12T07:31:32.888Z,73.39
2022-10-12T07:34:00.877Z,72.68
2022-10-12T07:36:47.319Z,72.07
2022-10-12T07:39:18.446Z,72.28
2022-10-12T07:41:46.549Z,72.26
2022-10-12T07:44:14.740Z,71.61
2022-10-12T07:46:42.954Z,71.13
2022-10-12T07:49:12.849Z,70.56
2022-10-12T07:51:40.932Z,70.45
2022-10-12T07:54:09.660Z,70.51
2022-10-12T07:56:39.289Z,69.92
2022-10-12T07:59:07.463Z,69.89
2022-10-12T08:01:35.895Z,70.07
2022-10-12T08:04:03.987Z,69.95
2022-10-12T08:06:34.005Z,69.61
2022-10-12T08:09:02.807Z,69.58
2022-10-12T08:11:30.942Z,69.74
2022-10-12T08:14:00.433Z,69.39
2022-10-12T08:16:28.461Z,69.04
2022-10-12T08:18:56.473Z,68.76
2022-10-12T08:21:24.450Z,68.79
2022-10-12T08:23:52.469Z,68.39
2022-10-12T08:26:20.447Z,67.95
2022-10-12T08:28:48.533Z,67.86
2022-10-12T08:31:19.498Z,67.75
2022-10-12T08:33:47.504Z,67.33
2022-10-12T08:36:15.565Z,66.90
2022-10-12T08:38:45.486Z,67.06
2022-10-12T08:41:24.705Z,66.89
2022-10-12T08:44:19.864Z,66.64
2022-10-12T08:46:50.254Z,66.60
2022-10-12T08:49:21.344Z,66.54
2022-10-12T08:51:52.874Z,66.33
2022-10-12T08:54:23.572Z,66.53
2022-10-12T08:56:55.227Z,65.90
2022-10-12T08:59:23.704Z,65.41
2022-10-12T09:02:07.033Z,65.33
2022-10-12T09:04:45.313Z,65.22
2022-10-12T09:07:18.453Z,65.50
2022-10-12T09:10:14.247Z,64.99
2022-10-12T09:12:53.445Z,64.53
2022-10-12T09:15:23.789Z,64.64
2022-10-12T09:17:54.892Z,64.64
2022-10-12T09:20:24.726Z,63.93
2022-10-12T09:22:56.596Z,64.43
2022-10-12T09:25:26.962Z,65.00
2022-10-12T09:27:58.575Z,64.23
2022-10-12T09:30:30.929Z,63.72
2022-10-12T09:33:12.870Z,63.82
2022-10-12T09:35:42.159Z,63.29
2022-10-12T09:38:11.814Z,63.52
2022-10-12T09:40:41.001Z,62.87
2022-10-12T09:43:09.941Z,63.21
2022-10-12T09:45:39.402Z,63.21
2022-10-12T09:48:15.468Z,62.93
2022-10-12T09:50:46.840Z,62.74
2022-10-12T09:53:21.458Z,62.78
2022-10-12T09:55:59.035Z,62.34
2022-10-12T09:58:29.163Z,62.29
2022-10-12T10:01:21.613Z,62.27
2022-10-12T10:04:07.071Z,62.05
2022-10-12T10:06:35.934Z,61.12
2022-10-12T10:09:04.149Z,60.79
2022-10-12T10:11:32.675Z,60.28
2022-10-12T10:14:02.857Z,60.86
2022-10-12T10:16:31.821Z,60.80
2022-10-12T10:19:03.122Z,59.91
2022-10-12T10:21:34.325Z,59.03
2022-10-12T10:24:04.135Z,59.62
2022-10-12T10:26:52.838Z,59.24
2022-10-12T10:29:35.624Z,58.44
2022-10-12T10:32:12.553Z,58.10
2022-10-12T10:34:42.768Z,56.61
2022-10-12T10:37:20.543Z,55.54
2022-10-12T10:39:50.999Z,54.98
2022-10-12T10:42:21.653Z,54.84
2022-10-12T10:44:52.555Z,55.17
2022-10-12T10:47:20.855Z,55.13
2022-10-12T10:49:55.568Z,53.89
2022-10-12T10:52:26.507Z,53.83
2022-10-12T10:55:17.026Z,53.51
2022-10-12T10:57:49.494Z,53.38
2022-10-12T11:00:38.006Z,53.14
2022-10-12T11:03:14.280Z,53.52
2022-10-12T11:05:47.807Z,53.02
2022-10-12T11:08:21.319Z,53.07
2022-10-12T11:10:55.889Z,52.80
2022-10-12T11:13:29.549Z,52.92
2022-10-12T11:16:04.218Z,53.24
2022-10-12T11:18:40.921Z,53.30
2022-10-12T11:21:16.695Z,53.08
2022-10-12T11:23:50.457Z,52.46
2022-10-12T11:26:25.898Z,52.76
2022-10-12T11:28:55.854Z,52.22
2022-10-12T11:31:27.768Z,52.29
2022-10-12T11:34:01.319Z,51.99
2022-10-12T11:36:33.429Z,52.22
2022-10-12T11:39:07.187Z,51.01
2022-10-12T11:42:09.332Z,51.83
2022-10-12T11:44:42.330Z,52.43
2022-10-12T11:47:17.350Z,51.51
2022-10-12T11:49:55.095Z,51.00
2022-10-12T11:52:28.923Z,49.71
2022-10-12T11:55:01.798Z,48.03
2022-10-12T11:57:35.093Z,48.18
2022-10-12T12:00:06.424Z,46.27
2022-10-12T12:02:43.578Z,46.05
2022-10-12T12:05:16.579Z,46.31
2022-10-12T12:07:51.263Z,45.15
2022-10-12T12:10:54.347Z,42.06
2022-10-12T12:13:27.266Z,41.39
2022-10-12T12:16:34.273Z,40.46
2022-10-12T12:19:36.533Z,39.72
2022-10-12T12:22:19.893Z,38.88
2022-10-12T12:25:11.989Z,37.17
2022-10-12T12:27:43.034Z,37.10
2022-10-12T12:30:34.421Z,36.66
2022-10-12T12:33:04.509Z,38.48
2022-10-12T12:35:38.645Z,38.86
2022-10-12T12:38:25.104Z,38.95
2022-10-12T12:41:13.832Z,38.96
2022-10-12T12:44:04.170Z,38.17
2022-10-12T12:47:39.970Z,38.89
2022-10-12T12:50:00.493Z,39.66
2022-10-12T12:52:31.264Z,39.76
2022-10-12T12:55:20.324Z,40.02
2022-10-12T12:58:04.933Z,39.91
2022-10-12T13:00:39.405Z,41.10
2022-10-12T13:03:40.662Z,41.92
2022-10-12T13:06:42.922Z,41.28
2022-10-12T13:09:46.976Z,41.14
2022-10-12T13:12:42.755Z,41.38
2022-10-12T13:15:38.273Z,41.20
2022-10-12T13:18:47.586Z,41.40
2022-10-12T13:21:21.445Z,42.79
2022-10-12T13:23:52.291Z,42.09
2022-10-12T13:26:26.478Z,41.28
2022-10-12T13:28:56.895Z,40.91
2022-10-12T13:31:33.655Z,40.55
2022-10-12T13:34:08.106Z,40.99
2022-10-12T13:36:47.728Z,41.32
2022-10-12T13:39:18.084Z,41.26
2022-10-12T13:41:47.670Z,41.87
2022-10-12T13:44:23.237Z,41.72
2022-10-12T13:46:56.469Z,41.28
2022-10-12T13:49:27.485Z,39.87
2022-10-12T13:51:57.532Z,39.71
2022-10-12T13:54:28.212Z,39.95
2022-10-12T13:56:59.224Z,41.07
2022-10-12T13:59:29.629Z,40.92
2022-10-12T14:02:01.170Z,40.44
2022-10-12T14:04:31.271Z,40.49
2022-10-12T14:07:04.095Z,40.85
2022-10-12T14:09:40.497Z,41.43
2022-10-12T14:12:10.683Z,41.78
2022-10-12T14:14:41.163Z,41.39
2022-10-12T14:17:15.906Z,42.78
2022-10-12T14:19:47.933Z,41.47
2022-10-12T14:22:22.235Z,42.58
2022-10-12T14:24:50.799Z,43.12
2022-10-12T14:27:25.018Z,42.40
2022-10-12T14:29:57.429Z,42.96
2022-10-12T14:32:44.282Z,43.31
2022-10-12T14:35:24.845Z,44.44
2022-10-12T14:37:54.927Z,44.16
2022-10-12T14:40:40.657Z,43.98
2022-10-12T14:43:24.263Z,44.74
2022-10-12T14:45:53.125Z,45.19
2022-10-12T14:48:23.759Z,45.00
2022-10-12T14:50:52.561Z,45.40
2022-10-12T14:53:21.117Z,45.89
2022-10-12T14:55:52.262Z,45.64
2022-10-12T14:58:22.619Z,45.08
2022-10-12T15:00:50.740Z,45.95
2022-10-12T15:03:20.258Z,45.52
2022-10-12T15:05:49.680Z,45.74
2022-10-12T15:08:17.655Z,46.60
2022-10-12T15:10:47.000Z,47.48
2022-10-12T15:13:15.108Z,47.67
2022-10-12T15:15:46.215Z,47.40
2022-10-12T15:18:14.325Z,47.37
2022-10-12T15:20:46.896Z,47.86
2022-10-12T15:23:19.151Z,47.58
2022-10-12T15:25:51.429Z,48.00
2022-10-12T15:28:20.141Z,48.20
2022-10-12T15:31:15.358Z,47.95
2022-10-12T15:33:36.472Z,48.59
2022-10-12T15:36:04.757Z,48.56
2022-10-12T15:38:34.244Z,48.39
2022-10-12T15:41:02.263Z,49.01
2022-10-12T15:43:31.475Z,49.29
2022-10-12T15:46:00.422Z,49.78
2022-10-12T15:48:29.105Z,50.01
2022-10-12T15:50:57.388Z,50.06
2022-10-12T15:53:27.352Z,50.61
2022-10-12T15:55:57.195Z,50.50
2022-10-12T15:58:25.249Z,51.16
2022-10-12T16:00:53.619Z,51.15
2022-10-12T16:03:26.047Z,51.61
2022-10-12T16:05:54.866Z,51.99
2022-10-12T16:08:23.004Z,52.28
2022-10-12T16:10:51.643Z,52.46
2022-10-12T16:13:21.010Z,52.84
2022-10-12T16:15:49.032Z,53.19
2022-10-12T16:18:17.680Z,53.55
2022-10-12T16:20:51.106Z,53.72
2022-10-12T16:23:24.328Z,54.44
2022-10-12T16:25:52.658Z,54.87
2022-10-12T16:28:22.415Z,55.17
2022-10-12T16:30:50.837Z,55.92
2022-10-12T16:33:19.508Z,57.00
2022-10-12T16:35:47.878Z,56.94
2022-10-12T16:38:16.110Z,56.94
2022-10-12T16:40:44.093Z,57.24
2022-10-12T16:43:13.305Z,57.19
2022-10-12T16:45:42.702Z,56.76
2022-10-12T16:48:10.677Z,57.47
2022-10-12T16:50:40.974Z,58.24
2022-10-12T16:53:11.119Z,57.96
2022-10-12T16:55:40.155Z,57.83
2022-10-12T16:58:08.093Z,58.03
2022-10-12T17:00:36.829Z,58.37
2022-10-12T17:03:06.262Z,58.05
2022-10-12T17:05:34.196Z,58.69
2022-10-12T17:08:02.175Z,59.11
2022-10-12T17:10:30.452Z,58.84
2022-10-12T17:12:58.416Z,58.98
2022-10-12T17:15:26.430Z,59.18
2022-10-12T17:17:54.449Z,59.39
2022-10-12T17:20:23.769Z,60.02
2022-10-12T17:22:51.735Z,60.38
2022-10-12T17:25:19.681Z,61.05
2022-10-12T17:27:50.659Z,61.70
2022-10-12T17:30:19.621Z,62.22
2022-10-12T17:32:47.719Z,61.88
2022-10-12T17:35:15.906Z,62.29
2022-10-12T17:37:45.277Z,62.55
2022-10-12T17:40:13.212Z,62.85
2022-10-12T17:42:41.241Z,62.58
2022-10-12T17:45:09.905Z,63.24
2022-10-12T17:47:39.520Z,63.66
2022-10-12T17:50:08.257Z,64.25
2022-10-12T17:52:39.643Z,63.77
2022-10-12T17:55:29.502Z,64.39
2022-10-12T17:57:57.771Z,64.76
2022-10-12T18:00:25.962Z,64.90
2022-10-12T18:02:54.079Z,64.74
2022-10-12T18:05:22.072Z,64.85
2022-10-12T18:07:50.046Z,64.83
2022-10-12T18:10:21.489Z,65.10
2022-10-12T18:12:51.498Z,65.69
2022-10-12T18:15:19.460Z,65.72
2022-10-12T18:17:47.532Z,65.71
2022-10-12T18:20:15.517Z,65.81
2022-10-12T18:22:43.570Z,65.64
2022-10-12T18:25:11.566Z,66.44
2022-10-12T18:27:40.845Z,66.74
2022-10-12T18:30:10.105Z,67.68
2022-10-12T18:32:38.087Z,67.18
2022-10-12T18:35:07.228Z,67.34
2022-10-12T18:37:35.245Z,67.14
2022-10-12T18:40:03.159Z,67.23
2022-10-12T18:42:31.278Z,67.07
2022-10-12T18:45:00.653Z,67.55
2022-10-12T18:47:28.603Z,67.13
2022-10-12T18:49:56.668Z,67.19
2022-10-12T18:52:24.574Z,67.27
2022-10-12T18:54:52.514Z,67.30
2022-10-12T18:57:20.554Z,66.92
2022-10-12T18:59:51.325Z,67.23
2022-10-12T19:02:21.874Z,67.57
2022-10-12T19:04:50.495Z,67.51
2022-10-12T19:07:18.570Z,68.00
2022-10-12T19:09:46.490Z,68.26
2022-10-12T19:12:16.995Z,67.79
2022-10-12T19:14:45.223Z,67.64
2022-10-12T19:17:13.268Z,68.41
2022-10-12T19:19:42.754Z,68.42
2022-10-12T19:22:10.867Z,68.44
2022-10-12T19:24:38.812Z,68.15
2022-10-12T19:27:06.783Z,68.02
2022-10-12T19:29:34.736Z,68.53
2022-10-12T19:32:02.882Z,68.44
2022-10-12T19:34:30.852Z,68.69
2022-10-12T19:37:00.655Z,68.71
2022-10-12T19:39:28.730Z,68.50
2022-10-12T19:41:56.713Z,68.89
2022-10-12T19:44:24.838Z,69.35
2022-10-12T19:46:53.684Z,69.08
2022-10-12T19:49:21.906Z,69.46
2022-10-12T19:51:49.840Z,69.23
2022-10-12T19:54:19.770Z,69.31
2022-10-12T19:56:47.765Z,70.23
2022-10-12T19:59:15.801Z,70.15
2022-10-12T20:01:47.872Z,70.62
2022-10-12T20:04:16.611Z,70.27
2022-10-12T20:06:44.538Z,70.39
2022-10-12T20:09:12.933Z,70.46
2022-10-12T20:11:42.461Z,70.88
2022-10-12T20:14:11.728Z,70.82
2022-10-12T20:16:39.941Z,71.00
2022-10-12T20:19:08.131Z,71.09
2022-10-12T20:21:37.531Z,70.73
2022-10-12T20:24:05.853Z,71.15
2022-10-12T20:26:33.774Z,71.43
2022-10-12T20:29:03.152Z,71.70
2022-10-12T20:31:31.212Z,71.73
2022-10-12T20:33:59.344Z,72.56
2022-10-12T20:36:29.598Z,72.14
2022-10-12T20:38:59.100Z,71.87
2022-10-12T20:41:27.742Z,72.01
2022-10-12T20:43:57.345Z,72.40
2022-10-12T20:46:29.221Z,72.98
2022-10-12T20:48:59.307Z,72.98
2022-10-12T20:51:29.668Z,73.13
2022-10-12T20:54:00.887Z,73.31
2022-10-12T20:56:29.338Z,73.22
2022-10-12T20:58:57.354Z,72.86
2022-10-12T21:01:28.349Z,72.92
2022-10-12T21:03:56.756Z,72.91
2022-10-12T21:06:25.265Z,72.94
2022-10-12T21:08:54.869Z,72.78
2022-10-12T21:11:23.294Z,73.13
2022-10-12T21:13:51.640Z,73.08
2022-10-12T21:16:20.288Z,73.01
2022-10-12T21:18:49.626Z,73.14
2022-10-12T21:21:19.972Z,73.17
2022-10-12T21:23:54.157Z,72.96
2022-10-12T21:26:24.034Z,73.17
2022-10-12T21:28:52.250Z,73.28
2022-10-12T21:31:20.794Z,73.19
2022-10-12T21:33:50.113Z,73.27
2022-10-12T21:36:19.739Z,73.11
2022-10-12T21:38:48.088Z,73.49
2022-10-12T21:41:18.148Z,73.36
2022-10-12T21:43:46.229Z,73.17
2022-10-12T21:46:16.503Z,73.50
2022-10-12T21:48:44.738Z,73.64
2022-10-12T21:51:14.729Z,74.11
2022-10-12T21:53:42.981Z,73.93
2022-10-12T21:56:15.653Z,73.89
2022-10-12T21:58:44.260Z,73.88
2022-10-12T22:01:14.245Z,74.48
2022-10-12T22:03:43.111Z,74.46
2022-10-12T22:06:15.231Z,74.99
2022-10-12T22:08:43.269Z,74.58
2022-10-12T22:11:14.582Z,74.46
2022-10-12T22:13:42.705Z,74.29
2022-10-12T22:16:13.653Z,74.89
2022-10-12T22:18:42.150Z,75.02
2022-10-12T22:21:13.264Z,75.69
2022-10-12T22:23:43.420Z,75.99
2022-10-12T22:26:13.785Z,75.92
2022-10-12T22:28:50.131Z,76.42
2022-10-12T22:31:20.218Z,76.69
2022-10-12T22:33:48.813Z,77.21
2022-10-12T22:36:17.184Z,77.61
2022-10-12T22:38:46.605Z,77.64
2022-10-12T22:41:17.132Z,77.45
2022-10-12T22:43:48.226Z,77.00
2022-10-12T22:46:16.630Z,77.58
2022-10-12T22:48:44.803Z,77.48
2022-10-12T22:51:16.441Z,76.65
2022-10-12T22:53:44.410Z,76.37
2022-10-12T22:56:16.340Z,76.37
2022-10-12T22:58:44.477Z,76.20
2022-10-12T23:01:14.875Z,76.37
2022-10-12T23:03:43.348Z,76.78
2022-10-12T23:06:12.900Z,76.74
2022-10-12T23:08:41.563Z,76.08
2022-10-12T23:11:12.193Z,76.37
2022-10-12T23:13:42.105Z,76.47
2022-10-12T23:16:12.346Z,76.51
2022-10-12T23:18:40.914Z,76.27
2022-10-12T23:21:11.105Z,76.94
2022-10-12T23:23:40.465Z,76.16
2022-10-12T23:26:10.369Z,77.07
2022-10-12T23:28:38.664Z,76.69
2022-10-12T23:31:14.961Z,76.77
2022-10-12T23:33:43.139Z,76.38
2022-10-12T23:36:13.811Z,76.87
2022-10-12T23:38:42.862Z,77.04
2022-10-12T23:41:11.507Z,77.75
2022-10-12T23:43:39.551Z,77.53
2022-10-12T23:46:07.968Z,77.35
2022-10-12T23:48:37.365Z,76.95
2022-10-12T23:51:07.841Z,77.39
2022-10-12T23:53:36.496Z,77.70
2022-10-12T23:56:04.850Z,78.30
2022-10-12T23:58:32.865Z,77.76
